createdAt,value
2018-09-10T00:01:11.877Z,8.57
2018-09-10T00:03:40.202Z,8.97
2018-09-10T00:06:08.522Z,9.10
2018-09-10T00:08:37.075Z,9.30
2018-09-10T00:11:06.067Z,9.20
2018-09-10T00:13:34.400Z,8.70
2018-09-10T00:16:02.769Z,7.97
2018-09-10T00:18:31.211Z,8.43
2018-09-10T00:20:59.518Z,8.27
2018-09-10T00:23:27.917Z,8.77
2018-09-10T00:25:56.296Z,8.23
2018-09-10T00:28:24.676Z,8.07
2018-09-10T00:30:53.099Z,8.43
2018-09-10T00:33:21.453Z,8.07
2018-09-10T00:35:50.195Z,8.37
2018-09-10T00:38:18.632Z,8.83
2018-09-10T00:40:46.961Z,8.20
2018-09-10T00:43:15.505Z,8.43
2018-09-10T00:45:43.919Z,8.03
2018-09-10T00:48:12.213Z,7.33
2018-09-10T00:50:40.551Z,8.00
2018-09-10T00:53:08.891Z,7.57
2018-09-10T00:55:37.327Z,7.33
2018-09-10T00:58:05.679Z,7.37
2018-09-10T01:00:34.105Z,7.43
2018-09-10T01:03:02.431Z,7.40
2018-09-10T01:05:30.817Z,7.67
2018-09-10T01:07:59.408Z,7.70
2018-09-10T01:10:28.221Z,7.60
2018-09-10T01:12:56.584Z,7.27
2018-09-10T01:15:24.877Z,7.00
2018-09-10T01:17:53.206Z,6.60
2018-09-10T01:20:21.540Z,6.70
2018-09-10T01:22:49.924Z,7.73
2018-09-10T01:25:25.018Z,6.30
2018-09-10T01:27:53.598Z,6.63
2018-09-10T01:30:21.912Z,6.87
2018-09-10T01:32:50.276Z,5.93
2018-09-10T01:35:18.643Z,5.93
2018-09-10T01:37:46.955Z,5.90
2018-09-10T01:40:15.357Z,6.30
2018-09-10T01:42:43.659Z,5.80
2018-09-10T01:45:12.000Z,5.50
2018-09-10T01:47:40.363Z,5.60
2018-09-10T01:50:08.708Z,5.60
2018-09-10T01:52:37.067Z,5.90
2018-09-10T01:55:05.422Z,5.30
2018-09-10T01:57:33.752Z,5.70
2018-09-10T02:00:02.075Z,6.07
2018-09-10T02:02:30.471Z,5.83
2018-09-10T02:04:58.831Z,6.27
2018-09-10T02:07:27.174Z,5.80
2018-09-10T02:09:55.474Z,6.23
2018-09-10T02:12:25.417Z,5.90
2018-09-10T02:14:55.355Z,6.00
2018-09-10T02:17:24.238Z,5.30
2018-09-10T02:19:52.599Z,6.10
2018-09-10T02:22:21.237Z,6.83
2018-09-10T02:24:49.585Z,5.87
2018-09-10T02:27:17.958Z,5.90
2018-09-10T02:29:46.366Z,5.70
2018-09-10T02:32:14.687Z,5.63
2018-09-10T02:34:43.071Z,5.37
2018-09-10T02:37:11.404Z,5.07
2018-09-10T02:39:39.740Z,5.27
2018-09-10T02:42:08.097Z,5.57
2018-09-10T02:44:36.471Z,5.27
2018-09-10T02:47:04.777Z,5.43
2018-09-10T02:49:33.049Z,5.17
2018-09-10T02:52:01.354Z,4.83
2018-09-10T02:54:29.658Z,5.17
2018-09-10T02:56:58.047Z,4.80
2018-09-10T02:59:26.413Z,4.97
2018-09-10T03:01:54.843Z,4.93
2018-09-10T03:04:23.222Z,4.87
2018-09-10T03:06:51.572Z,4.80
2018-09-10T03:09:19.968Z,5.00
2018-09-10T03:11:48.311Z,5.30
2018-09-10T03:14:16.654Z,5.50
2018-09-10T03:16:45.528Z,4.33
2018-09-10T03:19:13.870Z,4.77
2018-09-10T03:21:42.212Z,4.90
2018-09-10T03:24:10.617Z,4.27
2018-09-10T03:26:38.991Z,4.33
2018-09-10T03:29:07.714Z,4.40
2018-09-10T03:31:36.061Z,4.40
2018-09-10T03:34:04.406Z,4.37
2018-09-10T03:36:33.093Z,3.83
2018-09-10T03:39:01.393Z,4.37
2018-09-10T03:41:29.704Z,4.13
2018-09-10T03:43:58.079Z,4.17
2018-09-10T03:46:26.455Z,4.10
2018-09-10T03:48:54.810Z,4.03
2018-09-10T03:51:23.138Z,4.27
2018-09-10T03:53:51.488Z,3.90
2018-09-10T03:56:19.952Z,3.87
2018-09-10T03:58:48.343Z,3.77
2018-09-10T04:01:16.942Z,4.00
2018-09-10T04:03:45.254Z,4.13
2018-09-10T04:06:13.549Z,3.90
2018-09-10T04:08:42.095Z,3.90
2018-09-10T04:11:10.711Z,3.83
2018-09-10T04:13:39.113Z,3.90
2018-09-10T04:16:07.442Z,4.40
2018-09-10T04:18:35.820Z,4.10
2018-09-10T04:21:04.145Z,4.50
2018-09-10T04:23:32.937Z,4.93
2018-09-10T04:26:01.408Z,4.60
2018-09-10T04:28:29.695Z,4.87
2018-09-10T04:30:58.078Z,5.20
2018-09-10T04:33:26.815Z,5.40
2018-09-10T04:35:55.313Z,5.60
2018-09-10T04:38:23.687Z,5.80
2018-09-10T04:40:52.028Z,5.63
2018-09-10T04:43:20.353Z,5.83
2018-09-10T04:45:48.653Z,6.00
2018-09-10T04:48:17.015Z,5.90
2018-09-10T04:50:45.396Z,6.50
2018-09-10T04:53:13.738Z,6.10
2018-09-10T04:55:42.150Z,5.37
2018-09-10T04:58:10.595Z,6.20
2018-09-10T05:00:38.912Z,5.90
2018-09-10T05:03:07.324Z,6.03
2018-09-10T05:05:35.669Z,5.80
2018-09-10T05:08:04.034Z,6.53
2018-09-10T05:10:32.453Z,7.50
2018-09-10T05:13:00.782Z,9.00
2018-09-10T05:15:29.218Z,7.50
2018-09-10T05:17:57.583Z,7.27
2018-09-10T05:20:25.940Z,7.63
2018-09-10T05:22:55.278Z,7.43
2018-09-10T05:25:23.586Z,7.13
2018-09-10T05:27:51.973Z,5.97
2018-09-10T05:30:20.334Z,5.07
2018-09-10T05:32:48.707Z,5.13
2018-09-10T05:35:17.052Z,4.70
2018-09-10T05:37:45.436Z,4.90
2018-09-10T05:40:13.813Z,4.60
2018-09-10T05:42:42.266Z,4.50
2018-09-10T05:45:11.905Z,4.30
2018-09-10T05:47:40.761Z,4.33
2018-09-10T05:50:09.890Z,4.33
2018-09-10T05:52:38.179Z,4.87
2018-09-10T05:55:06.632Z,4.60
2018-09-10T05:57:34.960Z,4.27
2018-09-10T06:00:03.589Z,4.40
2018-09-10T06:02:31.962Z,4.60
2018-09-10T06:05:00.296Z,4.57
2018-09-10T06:07:28.759Z,4.13
2018-09-10T06:09:57.226Z,4.40
2018-09-10T06:12:25.593Z,4.50
2018-09-10T06:14:53.947Z,4.70
2018-09-10T06:17:22.351Z,5.00
2018-09-10T06:19:50.702Z,4.80
2018-09-10T06:22:19.028Z,5.07
2018-09-10T06:24:47.366Z,4.20
2018-09-10T06:27:15.699Z,5.17
2018-09-10T06:29:44.133Z,5.47
2018-09-10T06:32:12.831Z,4.87
2018-09-10T06:34:41.346Z,4.80
2018-09-10T06:37:09.751Z,4.70
2018-09-10T06:39:38.169Z,4.50
2018-09-10T06:42:06.538Z,5.00
2018-09-10T06:44:35.027Z,4.67
2018-09-10T06:47:03.351Z,4.80
2018-09-10T06:49:32.067Z,4.50
2018-09-10T06:52:00.457Z,4.83
2018-09-10T06:54:29.454Z,5.40
2018-09-10T06:56:58.789Z,4.47
2018-09-10T06:59:27.244Z,4.70
2018-09-10T07:01:55.576Z,4.47
2018-09-10T07:04:24.003Z,4.80
2018-09-10T07:06:52.644Z,4.07
2018-09-10T07:09:21.092Z,4.63
2018-09-10T07:11:49.442Z,4.30
2018-09-10T07:14:17.913Z,4.80
2018-09-10T07:16:46.242Z,4.97
2018-09-10T07:19:14.740Z,4.87
2018-09-10T07:21:43.235Z,5.00
2018-09-10T07:24:11.685Z,4.20
2018-09-10T07:26:40.068Z,4.30
2018-09-10T07:29:08.440Z,4.13
2018-09-10T07:31:36.798Z,3.87
2018-09-10T07:34:05.410Z,3.87
2018-09-10T07:36:33.523Z,4.00
2018-09-10T07:39:01.864Z,3.90
2018-09-10T07:41:30.203Z,3.93
2018-09-10T07:43:58.642Z,3.70
2018-09-10T07:46:26.960Z,3.90
2018-09-10T07:48:55.365Z,4.07
2018-09-10T07:51:23.691Z,3.83
2018-09-10T07:53:52.115Z,3.73
2018-09-10T07:56:20.449Z,3.37
2018-09-10T07:58:48.892Z,3.77
2018-09-10T08:01:17.361Z,3.20
2018-09-10T08:03:45.744Z,3.73
2018-09-10T08:06:14.678Z,4.30
2018-09-10T08:08:43.072Z,3.10
2018-09-10T08:11:11.177Z,3.00
2018-09-10T08:13:39.308Z,4.07
2018-09-10T08:16:08.154Z,3.30
2018-09-10T08:18:36.222Z,3.10
2018-09-10T08:21:04.322Z,3.47
2018-09-10T08:23:32.465Z,2.80
2018-09-10T08:26:01.085Z,2.90
2018-09-10T08:28:29.204Z,2.73
2018-09-10T08:30:57.337Z,2.80
2018-09-10T08:33:25.438Z,2.70
2018-09-10T08:35:53.535Z,2.33
2018-09-10T08:38:21.608Z,2.37
2018-09-10T08:40:49.717Z,2.67
2018-09-10T08:43:17.829Z,2.27
2018-09-10T08:45:45.984Z,3.13
2018-09-10T08:48:14.102Z,3.40
2018-09-10T08:50:42.242Z,2.60
2018-09-10T08:53:10.373Z,2.40
2018-09-10T08:55:38.679Z,3.13
2018-09-10T08:58:07.126Z,2.63
2018-09-10T09:00:35.528Z,2.70
2018-09-10T09:03:03.944Z,2.20
2018-09-10T09:05:32.315Z,2.07
2018-09-10T09:08:01.564Z,2.70
2018-09-10T09:10:29.940Z,2.40
2018-09-10T09:12:58.320Z,2.43
2018-09-10T09:15:26.936Z,2.50
2018-09-10T09:17:55.373Z,2.00
2018-09-10T09:20:23.868Z,2.60
2018-09-10T09:22:52.208Z,2.50
2018-09-10T09:25:20.579Z,2.80
2018-09-10T09:27:48.956Z,2.40
2018-09-10T09:30:17.428Z,1.97
2018-09-10T09:32:45.796Z,2.10
2018-09-10T09:35:14.151Z,2.20
2018-09-10T09:37:47.854Z,2.47
2018-09-10T09:40:21.666Z,2.60
2018-09-10T09:42:55.498Z,2.70
2018-09-10T09:45:30.949Z,2.90
2018-09-10T09:47:59.262Z,2.60
2018-09-10T09:50:28.228Z,3.00
2018-09-10T09:52:56.605Z,2.40
2018-09-10T09:55:25.051Z,2.70
2018-09-10T09:57:53.447Z,2.40
2018-09-10T10:00:27.185Z,2.57
2018-09-10T10:03:01.684Z,2.40
2018-09-10T10:05:30.030Z,2.33
2018-09-10T10:07:58.436Z,2.20
2018-09-10T10:10:26.794Z,2.50
2018-09-10T10:12:55.115Z,2.30
2018-09-10T10:15:23.521Z,2.50
2018-09-10T10:17:51.854Z,2.17
2018-09-10T10:20:20.200Z,2.03
2018-09-10T10:22:48.596Z,2.20
2018-09-10T10:25:17.053Z,2.60
2018-09-10T10:27:45.379Z,2.27
2018-09-10T10:30:13.764Z,2.37
2018-09-10T10:32:42.116Z,2.40
2018-09-10T10:35:10.558Z,2.10
2018-09-10T10:37:39.294Z,2.00
2018-09-10T10:40:07.734Z,1.80
2018-09-10T10:42:36.335Z,1.90
2018-09-10T10:45:05.575Z,2.00
2018-09-10T10:47:34.217Z,2.00
2018-09-10T10:50:02.788Z,2.13
2018-09-10T10:52:31.159Z,1.67
2018-09-10T10:54:59.707Z,1.97
2018-09-10T10:57:28.193Z,1.93
2018-09-10T10:59:56.593Z,2.17
2018-09-10T11:02:24.993Z,1.90
2018-09-10T11:04:53.863Z,2.10
2018-09-10T11:09:53.983Z,2.23
2018-09-10T11:12:22.432Z,2.10
2018-09-10T11:14:50.807Z,2.17
2018-09-10T11:17:19.377Z,2.23
2018-09-10T11:19:47.804Z,2.40
2018-09-10T11:22:16.691Z,9.43
2018-09-10T11:24:45.136Z,2.40
2018-09-10T11:27:13.497Z,2.00
2018-09-10T11:29:42.438Z,2.20
2018-09-10T11:32:10.852Z,1.87
2018-09-10T11:34:39.297Z,2.20
2018-09-10T11:37:07.640Z,2.40
2018-09-10T11:39:36.058Z,2.17
2018-09-10T11:42:04.755Z,1.90
2018-09-10T11:44:34.126Z,2.10
2018-09-10T11:47:02.790Z,2.10
2018-09-10T11:49:31.155Z,2.37
2018-09-10T11:51:59.495Z,1.70
2018-09-10T11:54:29.053Z,2.10
2018-09-10T11:56:57.421Z,2.13
2018-09-10T11:59:27.289Z,2.23
2018-09-10T12:01:56.462Z,2.20
2018-09-10T12:04:24.894Z,2.17
2018-09-10T12:06:53.498Z,2.07
2018-09-10T12:09:21.820Z,2.00
2018-09-10T12:11:50.181Z,2.00
2018-09-10T12:14:18.551Z,2.23
2018-09-10T12:16:46.964Z,2.10
2018-09-10T12:19:15.242Z,2.00
2018-09-10T12:21:43.585Z,2.50
2018-09-10T12:24:11.924Z,2.00
2018-09-10T12:26:40.359Z,2.13
2018-09-10T12:29:08.752Z,1.87
2018-09-10T12:31:37.135Z,8.63
2018-09-10T12:34:05.547Z,3.90
2018-09-10T12:36:33.846Z,2.60
2018-09-10T12:39:02.223Z,2.80
2018-09-10T12:41:30.580Z,2.37
2018-09-10T12:43:58.866Z,2.20
2018-09-10T12:46:27.499Z,2.37
2018-09-10T12:48:55.838Z,2.03
2018-09-10T12:51:24.197Z,2.10
2018-09-10T12:53:52.491Z,2.10
2018-09-10T12:56:20.801Z,2.03
2018-09-10T12:58:49.167Z,1.97
2018-09-10T13:01:17.495Z,1.93
2018-09-10T13:03:45.989Z,1.97
2018-09-10T13:06:14.952Z,2.10
2018-09-10T13:08:43.552Z,2.00
2018-09-10T13:11:11.947Z,1.90
2018-09-10T13:13:40.252Z,2.00
2018-09-10T13:16:08.869Z,2.10
2018-09-10T13:18:37.215Z,2.07
2018-09-10T13:21:05.633Z,2.20
2018-09-10T13:23:33.959Z,2.40
2018-09-10T13:26:02.257Z,1.97
2018-09-10T13:28:30.575Z,1.80
2018-09-10T13:30:58.878Z,1.70
2018-09-10T13:33:27.207Z,2.10
2018-09-10T13:35:55.552Z,1.90
2018-09-10T13:38:25.557Z,2.50
2018-09-10T13:40:54.796Z,2.10
2018-09-10T13:43:23.129Z,1.87
2018-09-10T13:45:51.710Z,2.60
2018-09-10T13:48:20.010Z,2.50
2018-09-10T13:50:48.335Z,2.13
2018-09-10T13:53:16.642Z,2.50
2018-09-10T13:55:44.943Z,3.07
2018-09-10T13:58:14.006Z,2.30
2018-09-10T14:00:42.310Z,2.17
2018-09-10T14:03:11.135Z,2.20
2018-09-10T14:05:42.777Z,2.27
2018-09-10T14:08:11.199Z,2.13
2018-09-10T14:10:39.537Z,2.17
2018-09-10T14:13:07.952Z,3.23
2018-09-10T14:15:36.431Z,2.50
2018-09-10T14:18:04.864Z,2.00
2018-09-10T14:20:33.150Z,2.10
2018-09-10T14:23:01.717Z,1.97
2018-09-10T14:25:30.146Z,1.70
2018-09-10T14:27:58.491Z,1.70
2018-09-10T14:30:26.855Z,2.20
2018-09-10T14:32:55.198Z,1.90
2018-09-10T14:35:23.602Z,5.27
2018-09-10T14:37:52.110Z,2.13
2018-09-10T14:40:21.554Z,2.13
2018-09-10T14:42:50.252Z,1.87
2018-09-10T14:45:18.579Z,1.93
2018-09-10T14:47:46.974Z,1.80
2018-09-10T14:50:16.913Z,2.03
2018-09-10T14:52:45.261Z,2.00
2018-09-10T14:55:13.604Z,2.50
2018-09-10T14:57:42.137Z,2.40
2018-09-10T15:00:14.699Z,2.30
2018-09-10T15:02:43.042Z,2.20
2018-09-10T15:05:11.799Z,2.10
2018-09-10T15:07:40.330Z,2.30
2018-09-10T15:10:08.607Z,2.20
2018-09-10T15:12:36.909Z,2.43
2018-09-10T15:15:05.248Z,2.27
2018-09-10T15:17:33.523Z,2.30
2018-09-10T15:20:02.134Z,2.50
2018-09-10T15:22:30.445Z,2.50
2018-09-10T15:24:58.797Z,2.80
2018-09-10T15:27:26.834Z,3.40
2018-09-10T15:29:55.010Z,2.50
2018-09-10T15:32:23.117Z,2.70
2018-09-10T15:34:51.276Z,2.60
2018-09-10T15:37:19.509Z,2.50
2018-09-10T15:39:48.241Z,2.67
2018-09-10T15:42:17.213Z,3.00
2018-09-10T15:44:45.258Z,2.90
2018-09-10T15:47:13.333Z,2.70
2018-09-10T15:49:41.496Z,3.00
2018-09-10T15:52:10.689Z,2.60
2018-09-10T15:54:38.805Z,2.40
2018-09-10T15:57:06.880Z,3.57
2018-09-10T15:59:34.972Z,2.40
2018-09-10T16:02:04.118Z,3.33
2018-09-10T16:04:32.317Z,3.00
2018-09-10T16:07:00.392Z,2.80
2018-09-10T16:09:28.482Z,2.30
2018-09-10T16:11:56.573Z,2.33
2018-09-10T16:14:24.670Z,2.70
2018-09-10T16:16:52.828Z,2.47
2018-09-10T16:19:21.843Z,2.60
2018-09-10T16:21:50.117Z,2.67
2018-09-10T16:24:18.371Z,3.20
2018-09-10T16:26:46.505Z,3.10
2018-09-10T16:29:14.650Z,2.67
2018-09-10T16:31:42.814Z,2.80
2018-09-10T16:34:11.328Z,2.80
2018-09-10T16:36:39.421Z,2.70
2018-09-10T16:39:08.148Z,2.50
2018-09-10T16:41:36.238Z,2.57
2018-09-10T16:44:04.402Z,2.50
2018-09-10T16:46:32.716Z,2.90
2018-09-10T16:49:00.801Z,3.00
2018-09-10T16:51:28.909Z,3.03
2018-09-10T16:53:57.032Z,2.80
2018-09-10T16:56:25.119Z,2.80
2018-09-10T16:58:53.199Z,2.57
2018-09-10T17:01:21.728Z,2.50
2018-09-10T17:03:49.837Z,2.70
2018-09-10T17:06:17.965Z,2.70
2018-09-10T17:08:46.025Z,2.50
2018-09-10T17:11:14.145Z,2.43
2018-09-10T17:13:42.225Z,2.43
2018-09-10T17:16:10.260Z,2.67
2018-09-10T17:18:38.364Z,2.97
2018-09-10T17:21:07.522Z,2.77
2018-09-10T17:23:35.560Z,2.53
2018-09-10T17:26:03.694Z,2.30
2018-09-10T17:28:31.752Z,2.87
2018-09-10T17:30:59.837Z,3.13
2018-09-10T17:33:27.886Z,2.70
2018-09-10T17:35:55.964Z,2.30
2018-09-10T17:38:24.155Z,2.40
2018-09-10T17:40:52.226Z,2.70
2018-09-10T17:43:20.265Z,2.83
2018-09-10T17:45:48.352Z,2.87
2018-09-10T17:48:16.424Z,2.20
2018-09-10T17:50:44.524Z,2.53
2018-09-10T17:53:12.637Z,2.57
2018-09-10T17:55:40.694Z,2.67
2018-09-10T17:58:08.729Z,2.50
2018-09-10T18:00:40.140Z,2.43
2018-09-10T18:03:09.231Z,2.90
2018-09-10T18:05:37.316Z,2.53
2018-09-10T18:08:05.673Z,2.33
2018-09-10T18:10:35.095Z,2.60
2018-09-10T18:13:03.145Z,2.93
2018-09-10T18:15:31.220Z,2.90
2018-09-10T18:17:59.602Z,3.07
2018-09-10T18:20:27.819Z,2.97
2018-09-10T18:22:56.256Z,2.80
2018-09-10T18:25:24.440Z,2.60
2018-09-10T18:27:52.639Z,2.70
2018-09-10T18:30:20.802Z,2.60
2018-09-10T18:32:49.918Z,2.97
2018-09-10T18:35:21.974Z,3.20
2018-09-10T18:37:51.468Z,3.00
2018-09-10T18:40:19.946Z,2.90
2018-09-10T18:42:50.474Z,2.70
2018-09-10T18:45:19.358Z,2.53
2018-09-10T18:47:47.618Z,3.00
2018-09-10T18:50:15.856Z,3.30
2018-09-10T18:52:44.340Z,2.83
2018-09-10T18:55:12.751Z,2.83
2018-09-10T18:57:40.855Z,2.63
2018-09-10T19:00:08.998Z,2.67
2018-09-10T19:02:37.345Z,3.00
2018-09-10T19:05:06.474Z,3.47
2018-09-10T19:07:34.647Z,3.17
2018-09-10T19:10:03.092Z,3.40
2018-09-10T19:12:55.837Z,4.17
2018-09-10T19:15:28.423Z,3.30
2018-09-10T19:18:04.509Z,3.70
2018-09-10T19:20:32.865Z,3.40
2018-09-10T19:23:00.976Z,3.93
2018-09-10T19:25:29.421Z,3.60
2018-09-10T19:27:57.629Z,3.53
2018-09-10T19:30:26.075Z,3.50
2018-09-10T19:32:54.178Z,3.53
2018-09-10T19:35:22.414Z,3.30
2018-09-10T19:37:50.585Z,3.30
2018-09-10T19:40:18.726Z,3.33
2018-09-10T19:42:47.087Z,3.13
2018-09-10T19:45:15.181Z,3.20
2018-09-10T19:47:43.402Z,3.27
2018-09-10T19:50:12.597Z,3.10
2018-09-10T19:52:46.968Z,3.50
2018-09-10T19:55:15.048Z,3.40
2018-09-10T19:57:46.953Z,3.53
2018-09-10T20:00:15.897Z,3.50
2018-09-10T20:02:44.194Z,3.63
2018-09-10T20:05:12.553Z,3.43
2018-09-10T20:07:40.674Z,3.50
2018-09-10T20:10:09.158Z,3.53
2018-09-10T20:12:37.678Z,3.47
2018-09-10T20:15:06.021Z,3.33
2018-09-10T20:17:34.414Z,3.37
2018-09-10T20:20:04.196Z,3.63
2018-09-10T20:22:32.459Z,3.43
2018-09-10T20:25:00.582Z,3.10
2018-09-10T20:27:28.729Z,2.90
2018-09-10T20:29:57.098Z,3.67
2018-09-10T20:32:26.406Z,3.30
2018-09-10T20:34:54.919Z,3.20
2018-09-10T20:37:23.075Z,2.90
2018-09-10T20:39:51.215Z,3.73
2018-09-10T20:42:19.469Z,3.00
2018-09-10T20:44:47.893Z,4.23
2018-09-10T20:47:16.169Z,3.90
2018-09-10T20:49:44.374Z,4.00
2018-09-10T20:52:13.145Z,4.10
2018-09-10T20:54:42.469Z,4.07
2018-09-10T20:57:11.364Z,4.17
2018-09-10T20:59:39.467Z,4.00
2018-09-10T21:02:07.560Z,3.80
2018-09-10T21:04:35.658Z,4.30
2018-09-10T21:07:03.994Z,4.47
2018-09-10T21:09:32.115Z,4.10
2018-09-10T21:12:00.958Z,4.07
2018-09-10T21:14:29.177Z,3.83
2018-09-10T21:16:57.295Z,4.27
2018-09-10T21:19:25.502Z,4.00
2018-09-10T21:21:53.594Z,4.27
2018-09-10T21:24:21.703Z,4.40
2018-09-10T21:26:49.851Z,4.50
2018-09-10T21:29:17.947Z,3.87
2018-09-10T21:31:46.106Z,4.03
2018-09-10T21:34:14.241Z,4.50
2018-09-10T21:36:42.419Z,3.47
2018-09-10T21:39:10.844Z,4.00
2018-09-10T21:41:39.457Z,3.70
2018-09-10T21:44:07.915Z,3.77
2018-09-10T21:46:36.184Z,3.73
2018-09-10T21:49:04.563Z,4.07
2018-09-10T21:51:32.753Z,4.40
2018-09-10T21:54:00.873Z,4.17
2018-09-10T21:56:29.135Z,3.87
2018-09-10T21:58:57.275Z,3.40
2018-09-10T22:01:25.536Z,3.70
2018-09-10T22:03:53.850Z,4.20
2018-09-10T22:06:22.939Z,3.20
2018-09-10T22:08:51.243Z,3.40
2018-09-10T22:11:19.826Z,3.23
2018-09-10T22:13:48.231Z,3.20
2018-09-10T22:16:16.328Z,3.50
2018-09-10T22:18:44.517Z,3.40
2018-09-10T22:21:12.808Z,3.20
2018-09-10T22:23:40.939Z,3.80
2018-09-10T22:26:10.317Z,3.20
2018-09-10T22:28:39.295Z,3.27
2018-09-10T22:31:09.430Z,3.27
2018-09-10T22:33:38.737Z,3.33
2018-09-10T22:36:06.807Z,3.40
2018-09-10T22:38:34.866Z,3.30
2018-09-10T22:41:03.902Z,2.63
2018-09-10T22:43:32.079Z,2.87
2018-09-10T22:46:00.165Z,2.90
2018-09-10T22:48:28.510Z,3.17
2018-09-10T22:50:57.486Z,2.80
2018-09-10T22:53:25.567Z,3.00
2018-09-10T22:55:53.648Z,2.90
2018-09-10T22:58:23.125Z,3.10
2018-09-10T23:00:51.602Z,2.90
2018-09-10T23:03:19.779Z,3.27
2018-09-10T23:05:48.730Z,3.30
2018-09-10T23:08:17.988Z,3.17
2018-09-10T23:10:46.216Z,3.30
2018-09-10T23:13:14.331Z,3.10
2018-09-10T23:15:42.487Z,3.60
2018-09-10T23:18:10.670Z,3.17
2018-09-10T23:20:39.086Z,2.97
2018-09-10T23:23:07.187Z,2.97
2018-09-10T23:25:35.412Z,2.90
2018-09-10T23:28:03.467Z,3.20
2018-09-10T23:30:31.564Z,3.83
2018-09-10T23:32:59.654Z,2.90
2018-09-10T23:35:28.649Z,2.90
2018-09-10T23:37:58.834Z,2.50
2018-09-10T23:40:27.020Z,2.80
2018-09-10T23:42:55.078Z,3.00
2018-09-10T23:45:23.153Z,2.87
2018-09-10T23:47:51.185Z,3.10
2018-09-10T23:50:19.294Z,2.53
2018-09-10T23:52:47.434Z,2.70
2018-09-10T23:55:15.556Z,2.50
2018-09-10T23:57:43.623Z,3.17
